»·PEaware :: N4635K KBFL-KMHV

N4635K :: KBFL-KMHV

FLIGHT INFORMATION

Flight Status: Arrived
Operator: Privately registered:
United States
More flights under this callsign
Pilot: Brent M. (20569)
Aircraft: CESSNA 172 SKYHAWK
(C172)
More flights by this aircraft type
Origin: KBFL Meadows
United States
Destination: KMHV Mojave
United States
More flights between these airports :: More routes between these airports
Route:
File this flight plan on PilotEdge
Remarks:
Altitude:
(Current/Filed)
7,500ft
Speed:
(Current/Filed)
110kts
Departed: 28-Sep-18 04:39 PM
Arrived: 28-Sep-18 05:13 PM
Distance/Time
Traveled:
50nm/0:34
Distance/Time
To Go:
Arrived

Flight Plot

Page will automatically refresh every two minutes.


Map Options




Map Legend


Flown Route
Filed Route
Departure Airport
Arrival Airport
Navaid (VOR, NDB)
Fix

Horizontal Profiles

Position Reports

Time Latitude Longitude Heading Altitude Ground
Speed
28-Sep-18 16:06 35.435703 -119.052043 180 497ft 0kts
28-Sep-18 16:07 35.435703 -119.052043 180 497ft 0kts
28-Sep-18 16:08 35.435703 -119.052043 180 497ft 0kts
28-Sep-18 16:09 35.435703 -119.052043 180 497ft 0kts
28-Sep-18 16:10 35.435703 -119.052043 180 497ft 0kts
28-Sep-18 16:11 35.435703 -119.052043 180 497ft 0kts
28-Sep-18 16:12 35.435703 -119.052043 180 497ft 0kts
28-Sep-18 16:13 35.435702 -119.052043 180 497ft 0kts
28-Sep-18 16:14 35.435703 -119.052043 180 497ft 0kts
28-Sep-18 16:15 35.435702 -119.052043 180 497ft 0kts
28-Sep-18 16:16 35.435702 -119.052043 180 497ft 0kts
28-Sep-18 16:17 35.435702 -119.052043 180 497ft 0kts
28-Sep-18 16:18 35.435702 -119.052043 180 497ft 0kts
28-Sep-18 16:19 35.435702 -119.052043 180 497ft 0kts
28-Sep-18 16:20 35.435702 -119.052043 180 497ft 0kts
28-Sep-18 16:21 35.435702 -119.052043 180 497ft 0kts
28-Sep-18 16:22 35.435702 -119.052043 180 497ft 0kts
28-Sep-18 16:23 35.435702 -119.052043 180 497ft 0kts
28-Sep-18 16:24 35.435702 -119.052043 180 497ft 0kts
28-Sep-18 16:25 35.435702 -119.052043 180 497ft 0kts
28-Sep-18 16:26 35.435702 -119.052043 180 497ft 0kts
28-Sep-18 16:27 35.435702 -119.052043 180 497ft 0kts
28-Sep-18 16:28 35.435712 -119.052165 180 497ft 0kts
28-Sep-18 16:29 35.435712 -119.052165 180 497ft 0kts
28-Sep-18 16:30 35.435712 -119.052165 180 497ft 0kts
28-Sep-18 16:31 35.435712 -119.052165 180 497ft 0kts
28-Sep-18 16:32 35.435712 -119.052165 180 497ft 0kts
28-Sep-18 16:33 35.435218 -119.053748 232 497ft 11kts
28-Sep-18 16:34 35.433333 -119.053370 142 497ft 18kts
28-Sep-18 16:35 35.429265 -119.048407 131 497ft 19kts
28-Sep-18 16:36 35.426175 -119.044670 130 497ft 8kts
28-Sep-18 16:37 35.425529 -119.044682 315 497ft 0kts
28-Sep-18 16:38 35.425529 -119.044683 314 497ft 0kts
28-Sep-18 16:39 35.425697 -119.044603 341 497ft 3kts
28-Sep-18 16:40 35.425622 -119.044862 227 497ft 7kts
28-Sep-18 16:41 35.430843 -119.052251 316 699ft 59kts
28-Sep-18 16:42 35.434553 -119.069688 222 1531ft 73kts
28-Sep-18 16:43 35.414374 -119.069997 137 2337ft 90kts
28-Sep-18 16:44 35.404165 -119.042443 113 3138ft 91kts
28-Sep-18 16:45 35.392954 -119.015628 118 3885ft 91kts
28-Sep-18 16:46 35.382301 -118.988637 121 4653ft 88kts
28-Sep-18 16:47 35.371497 -118.961813 122 5368ft 88kts
28-Sep-18 16:48 35.360694 -118.935533 123 6055ft 87kts
28-Sep-18 16:49 35.349999 -118.909866 127 6707ft 85kts
28-Sep-18 16:50 35.339105 -118.886750 125 7085ft 101kts
28-Sep-18 16:51 35.326927 -118.851917 118 7279ft 116kts
28-Sep-18 16:52 35.314193 -118.816327 122 7434ft 123kts
28-Sep-18 16:53 35.298573 -118.780263 123 7437ft 117kts
28-Sep-18 16:54 35.285849 -118.745184 119 7389ft 115kts
28-Sep-18 16:55 35.273085 -118.711773 120 7329ft 116kts
28-Sep-18 16:56 35.261294 -118.677092 117 7588ft 113kts
28-Sep-18 16:57 35.251256 -118.645536 119 7738ft 113kts
28-Sep-18 16:58 35.238106 -118.613252 123 7736ft 116kts
28-Sep-18 16:59 35.224924 -118.584807 125 7578ft 129kts
28-Sep-18 17:00 35.208886 -118.550268 124 7546ft 126kts
28-Sep-18 17:01 35.193634 -118.517257 125 7469ft 122kts
28-Sep-18 17:02 35.180614 -118.489594 123 7409ft 126kts
28-Sep-18 17:03 35.165799 -118.459674 124 7483ft 123kts
28-Sep-18 17:04 35.146471 -118.418843 123 7594ft 125kts
28-Sep-18 17:05 35.130607 -118.386261 121 7679ft 125kts
28-Sep-18 17:06 35.120085 -118.362066 119 7689ft 129kts
28-Sep-18 17:07 35.114013 -118.324592 98 6777ft 132kts
28-Sep-18 17:08 35.103070 -118.276734 114 5563ft 131kts
28-Sep-18 17:09 35.092233 -118.244318 120 4621ft 132kts
28-Sep-18 17:10 35.075707 -118.206513 127 3780ft 126kts
28-Sep-18 17:11 35.068014 -118.166673 77 3754ft 108kts
28-Sep-18 17:12 35.071214 -118.132555 104 3901ft 114kts
28-Sep-18 17:13 35.060349 -118.114145 198 3497ft 69kts
28-Sep-18 17:14 35.059145 -118.133323 261 2981ft 58kts
28-Sep-18 17:15 35.059169 -118.148543 269 2760ft 32kts
28-Sep-18 17:16 35.059189 -118.156635 271 2760ft 20kts
28-Sep-18 17:17 35.058444 -118.157777 178 2760ft 0kts
28-Sep-18 17:18 35.057624 -118.156231 87 2760ft 14kts
28-Sep-18 17:19 35.056671 -118.155675 173 2760ft 0kts
28-Sep-18 17:20 35.056671 -118.155675 173 2760ft 0kts

Navigation Log

Ident Type
Flight plan parsing failed, navigation log unavailable